Time;durP1;ratioP1;P1;durP2;ratioP2;P2;SDS_P1;SDS_P2;PMS_P1;PMS_P2;Temp;Humidity;BMP_temperature;BMP_pressure;BME280_temperature;BME280_humidity;BME280_pressure;Samples;Min_cycle;Max_cycle;Signal;HPM_P1;HPM_P2
2022/06/02 00:05:10;;;;;;;6.03;4.22;;;24.60;69.20;;;;;;11018974;32;20037;-76
2022/06/02 00:11:46;;;;;;;10.65;5.35;;;24.50;69.20;;;;;;11018853;32;20305;-76
2022/06/02 00:18:17;;;;;;;8.13;4.63;;;24.40;69.50;;;;;;10631348;32;11763925;-77
2022/06/02 00:24:57;;;;;;;9.07;5.28;;;24.30;69.50;;;;;;10976792;32;20583;-76
2022/06/02 00:31:29;;;;;;;8.35;5.78;;;24.30;69.50;;;;;;10972181;32;20030;-76
2022/06/02 00:37:52;;;;;;;5.82;4.28;;;24.20;69.80;;;;;;10974868;32;20327;-76
2022/06/02 00:44:31;;;;;;;7.60;5.15;;;24.20;69.80;;;;;;10972192;32;20034;-76
2022/06/02 00:50:48;;;;;;;8.95;5.15;;;24.20;69.80;;;;;;10859926;32;20411;-76
2022/06/02 01:03:39;;;;;;;7.75;5.05;;;24.10;69.90;;;;;;10862706;32;20422;-76
2022/06/02 01:09:58;;;;;;;8.63;5.53;;;24.00;70.00;;;;;;10862527;32;20023;-76
2022/06/02 01:16:18;;;;;;;7.60;5.47;;;24.10;70.00;;;;;;10836942;27;20043;-76
2022/06/02 01:22:50;;;;;;;8.98;5.03;;;24.10;70.10;;;;;;10825356;33;20033;-76
2022/06/02 01:29:04;;;;;;;9.00;5.60;;;24.10;70.50;;;;;;10903759;32;20042;-76
2022/06/02 01:35:19;;;;;;;8.88;5.65;;;24.10;70.60;;;;;;10899862;32;20046;-76
2022/06/02 01:41:26;;;;;;;8.07;5.10;;;24.00;70.80;;;;;;10905955;32;20035;-76
2022/06/02 01:47:34;;;;;;;11.10;5.05;;;24.00;71.00;;;;;;10910472;32;20078;-76
2022/06/02 01:54:11;;;;;;;7.27;4.83;;;23.90;71.40;;;;;;10910197;32;20046;-76
2022/06/02 02:00:22;;;;;;;7.32;5.35;;;23.90;71.30;;;;;;10909900;32;20119;-76
2022/06/02 02:06:51;;;;;;;8.18;5.50;;;23.90;71.80;;;;;;10906764;32;20022;-76
2022/06/02 02:13:02;;;;;;;12.27;6.03;;;23.90;72.10;;;;;;10908464;32;20027;-76
2022/06/02 02:19:15;;;;;;;10.23;6.65;;;23.90;72.40;;;;;;10909173;32;20028;-76
2022/06/02 02:25:29;;;;;;;8.95;6.37;;;23.80;72.70;;;;;;10904835;32;20034;-76
2022/06/02 02:31:48;;;;;;;16.00;8.23;;;23.80;73.10;;;;;;10905032;32;20349;-76
2022/06/02 02:37:57;;;;;;;14.95;9.18;;;23.80;73.10;;;;;;10908582;32;20031;-76
2022/06/02 02:44:19;;;;;;;17.25;9.50;;;23.80;73.30;;;;;;10907318;32;20084;-76
2022/06/02 02:50:37;;;;;;;11.93;7.90;;;23.80;73.50;;;;;;10908175;32;20020;-75
2022/06/02 02:56:58;;;;;;;21.85;10.88;;;23.70;74.00;;;;;;10907428;32;20066;-75
2022/06/02 03:03:20;;;;;;;29.80;13.35;;;23.70;74.20;;;;;;10907618;32;20023;-75
2022/06/02 03:09:59;;;;;;;21.23;9.45;;;23.70;74.40;;;;;;10907521;32;20023;-75
2022/06/02 03:16:06;;;;;;;15.23;10.50;;;23.70;74.40;;;;;;10906921;32;20023;-75
2022/06/02 03:22:24;;;;;;;15.07;10.63;;;23.60;74.70;;;;;;10906855;32;20046;-76
2022/06/02 03:28:53;;;;;;;19.67;12.13;;;23.60;75.00;;;;;;10902608;32;20315;-75
2022/06/02 03:35:22;;;;;;;17.00;9.47;;;23.50;75.30;;;;;;10904151;32;20053;-76
2022/06/02 03:42:01;;;;;;;19.58;10.00;;;23.60;75.00;;;;;;10906210;32;20115;-75
2022/06/02 03:48:08;;;;;;;27.98;12.55;;;23.60;75.00;;;;;;10906119;32;20046;-76
2022/06/02 03:54:33;;;;;;;12.85;8.23;;;23.60;75.00;;;;;;10905965;32;20414;-76
2022/06/02 04:00:58;;;;;;;11.30;8.48;;;23.60;75.10;;;;;;10905530;32;20046;-75
2022/06/02 04:07:03;;;;;;;;;;;23.70;74.90;;;;;;10901510;32;20031;-75
2022/06/02 04:26:45;;;;;;;17.85;10.27;;;23.80;74.80;;;;;;10905067;32;20037;-76
2022/06/02 04:33:12;;;;;;;30.52;13.48;;;23.80;74.80;;;;;;10904787;32;20035;-76
2022/06/02 04:39:58;;;;;;;17.20;9.85;;;23.70;74.70;;;;;;10900102;32;20031;-76
2022/06/02 04:46:20;;;;;;;19.17;10.45;;;23.70;74.50;;;;;;10902954;32;20042;-76
2022/06/02 04:52:30;;;;;;;21.55;9.88;;;23.70;74.70;;;;;;10903995;32;20019;-76
2022/06/02 04:58:50;;;;;;;14.73;10.13;;;23.60;74.70;;;;;;10902972;32;20019;-76
2022/06/02 05:05:17;;;;;;;16.75;10.45;;;23.70;74.50;;;;;;10903800;32;20360;-75
2022/06/02 05:11:52;;;;;;;17.10;8.65;;;23.80;74.20;;;;;;10903482;32;20073;-76
2022/06/02 05:18:28;;;;;;;12.57;8.15;;;23.90;73.90;;;;;;10905103;32;20045;-76
2022/06/02 05:25:12;;;;;;;14.82;8.88;;;24.00;73.80;;;;;;10910868;32;20055;-76
2022/06/02 05:31:42;;;;;;;12.65;9.50;;;24.00;73.80;;;;;;10910484;32;20012;-77
2022/06/02 05:38:16;;;;;;;16.95;7.07;;;23.90;73.90;;;;;;10906588;32;20046;-76
2022/06/02 05:44:43;;;;;;;18.02;9.57;;;24.00;73.90;;;;;;10879184;32;20024;-76
2022/06/02 05:51:01;;;;;;;17.45;8.48;;;24.00;73.90;;;;;;10871441;32;20028;-77
2022/06/02 05:57:32;;;;;;;11.73;8.57;;;24.00;73.80;;;;;;10871719;32;20046;-77
2022/06/02 06:04:21;;;;;;;15.40;9.55;;;24.00;73.60;;;;;;10871843;32;20308;-77
2022/06/02 06:10:34;;;;;;;17.77;10.23;;;24.00;73.70;;;;;;10866965;32;20027;-76
2022/06/02 06:16:52;;;;;;;20.27;10.95;;;24.00;74.00;;;;;;10866127;32;20023;-76
2022/06/02 06:23:03;;;;;;;16.95;8.77;;;24.00;74.00;;;;;;10888596;32;20058;-75
2022/06/02 06:29:18;;;;;;;15.25;7.80;;;24.00;73.90;;;;;;10903483;32;20187;-76
2022/06/02 06:35:41;;;;;;;13.07;7.15;;;24.10;73.70;;;;;;10898558;32;20055;-78
2022/06/02 06:42:20;;;;;;;17.37;11.20;;;24.20;73.50;;;;;;10899852;32;20043;-76
2022/06/02 06:48:36;;;;;;;12.88;9.93;;;24.30;73.20;;;;;;10899171;32;20426;-76
2022/06/02 06:55:00;;;;;;;13.23;9.57;;;24.40;72.90;;;;;;10897339;32;20031;-76
2022/06/02 07:01:12;;;;;;;15.63;8.65;;;24.60;72.50;;;;;;10893821;32;20328;-76
2022/06/02 07:07:39;;;;;;;13.90;10.10;;;24.80;72.40;;;;;;10892322;32;20045;-76
2022/06/02 07:13:48;;;;;;;11.68;7.97;;;25.00;72.00;;;;;;10889471;32;20074;-77
2022/06/02 07:19:58;;;;;;;18.12;11.32;;;25.20;71.60;;;;;;10872408;32;20066;-77
2022/06/02 07:26:37;;;;;;;14.52;7.55;;;25.30;71.60;;;;;;10866887;32;20105;-76
2022/06/02 07:33:02;;;;;;;;;;;25.30;71.90;;;;;;10855543;32;20035;-75
2022/06/02 07:39:13;;;;;;;16.98;8.18;;;25.30;71.70;;;;;;10858142;32;19931;-77
2022/06/02 07:45:20;;;;;;;9.00;6.60;;;25.40;71.80;;;;;;10858331;32;20024;-77
2022/06/02 07:51:50;;;;;;;12.73;8.93;;;25.50;71.40;;;;;;10854630;32;20073;-77
2022/06/02 07:58:06;;;;;;;11.10;7.50;;;25.60;71.20;;;;;;10861476;32;20044;-77
2022/06/02 08:04:35;;;;;;;12.98;9.38;;;25.60;71.30;;;;;;10856345;32;20053;-77
2022/06/02 08:10:43;;;;;;;10.52;6.95;;;25.70;71.10;;;;;;10893670;32;20053;-77
2022/06/02 08:16:49;;;;;;;13.00;7.43;;;25.90;70.70;;;;;;10878047;32;20031;-77
2022/06/02 08:23:06;;;;;;;14.00;7.40;;;26.10;70.40;;;;;;10869368;32;20332;-77
2022/06/02 08:29:39;;;;;;;10.73;6.55;;;26.20;70.10;;;;;;10863995;32;20051;-77
2022/06/02 08:36:12;;;;;;;15.43;8.85;;;26.20;69.90;;;;;;10878168;32;20367;-77
2022/06/02 08:42:25;;;;;;;20.48;12.30;;;26.20;69.90;;;;;;10856700;32;20347;-73
2022/06/02 08:49:04;;;;;;;10.18;6.35;;;26.30;69.70;;;;;;10868724;32;20435;-76
2022/06/02 08:55:28;;;;;;;12.60;6.62;;;26.60;69.30;;;;;;10866948;32;20058;-77
2022/06/02 09:01:48;;;;;;;11.95;7.12;;;26.70;69.10;;;;;;10871086;32;20407;-75
2022/06/02 09:08:02;;;;;;;12.37;7.07;;;26.80;68.80;;;;;;10856981;32;20557;-77
2022/06/02 09:14:19;;;;;;;12.32;7.68;;;27.00;68.60;;;;;;10887981;27;20339;-78
2022/06/02 09:20:33;;;;;;;9.27;6.57;;;27.10;68.20;;;;;;10884987;32;20442;-77
2022/06/02 09:26:42;;;;;;;15.35;8.05;;;27.20;68.30;;;;;;10887997;32;20186;-77
2022/06/02 09:39:45;;;;;;;7.72;5.93;;;27.60;67.30;;;;;;10890085;32;20023;-79
2022/06/02 09:46:40;;;;;;;10.10;6.35;;;27.80;66.80;;;;;;10895140;32;20053;-79
2022/06/02 09:53:10;;;;;;;16.37;7.32;;;27.90;66.40;;;;;;10893932;32;20054;-74
2022/06/02 09:59:33;;;;;;;10.85;6.53;;;28.10;66.10;;;;;;10891248;32;20035;-74
2022/06/02 10:05:44;;;;;;;7.03;5.45;;;28.00;66.30;;;;;;10893961;32;20147;-78
2022/06/02 10:18:57;;;;;;;11.02;7.55;;;28.30;65.20;;;;;;10895916;32;20450;-78
2022/06/02 10:25:34;;;;;;;10.45;8.73;;;28.20;65.70;;;;;;10860483;32;20023;-77
2022/06/02 10:32:03;;;;;;;12.07;7.65;;;28.60;65.00;;;;;;10858419;32;20028;-76
2022/06/02 10:38:27;;;;;;;8.63;6.95;;;28.50;64.80;;;;;;10860232;32;20070;-76
2022/06/02 10:44:58;;;;;;;9.05;5.57;;;28.70;64.80;;;;;;10859298;32;20099;-76
2022/06/02 10:51:27;;;;;;;27.92;24.77;;;29.30;63.80;;;;;;10706841;33;20078;-75
2022/06/02 10:57:48;;;;;;;13.18;9.68;;;29.70;62.70;;;;;;10721528;33;20291;-75
2022/06/02 11:04:02;;;;;;;9.40;7.72;;;29.70;62.40;;;;;;10716378;33;20490;-74
2022/06/02 11:10:48;;;;;;;15.68;10.80;;;29.40;62.90;;;;;;10704504;33;20029;-77
2022/06/02 11:17:03;;;;;;;19.75;16.45;;;29.40;62.70;;;;;;10700780;33;20346;-78
2022/06/02 11:23:11;;;;;;;14.68;9.15;;;29.40;62.70;;;;;;10708584;32;20025;-75
2022/06/02 11:29:35;;;;;;;49.17;37.80;;;29.60;62.50;;;;;;10843960;32;20015;-73
2022/06/02 11:36:07;;;;;;;16.90;12.43;;;29.50;62.40;;;;;;10839591;32;20023;-74
2022/06/02 11:42:38;;;;;;;25.25;10.02;;;29.30;62.70;;;;;;10853171;32;20282;-78
2022/06/02 11:49:06;;;;;;;14.45;8.38;;;29.90;61.90;;;;;;10817961;32;20055;-74
2022/06/02 11:55:53;;;;;;;16.10;7.60;;;30.20;61.10;;;;;;10849469;32;20110;-75
2022/06/02 12:02:26;;;;;;;7.47;5.90;;;30.60;60.10;;;;;;10727359;32;20319;-76
2022/06/02 12:08:32;;;;;;;10.45;6.82;;;30.90;59.30;;;;;;10737276;32;20330;-74
2022/06/02 12:14:59;;;;;;;13.30;5.15;;;31.00;59.30;;;;;;10736156;33;20380;-78
2022/06/02 12:21:45;;;;;;;8.10;5.57;;;31.30;58.50;;;;;;10737353;32;20056;-76
2022/06/02 12:28:10;;;;;;;10.02;4.90;;;31.30;57.70;;;;;;10616731;33;20021;-78
2022/06/02 12:34:18;;;;;;;15.13;6.40;;;30.80;58.30;;;;;;10593766;33;20026;-75
2022/06/02 12:40:30;;;;;;;8.10;5.35;;;30.50;58.80;;;;;;10629395;33;20025;-76
2022/06/02 12:46:45;;;;;;;10.02;6.32;;;30.40;58.40;;;;;;10629907;33;20053;-78
2022/06/02 12:53:19;;;;;;;9.13;4.32;;;30.60;58.30;;;;;;10630336;33;20151;-76
2022/06/02 13:00:06;;;;;;;11.45;5.07;;;30.80;57.10;;;;;;10620385;33;20299;-76
2022/06/02 13:06:56;;;;;;;8.63;4.60;;;30.90;56.90;;;;;;10741979;33;20032;-74
2022/06/02 13:13:28;;;;;;;6.07;3.78;;;31.10;56.30;;;;;;10726843;32;20051;-74
2022/06/02 13:19:57;;;;;;;5.50;3.35;;;31.40;55.80;;;;;;10742397;32;20028;-76
2022/06/02 13:26:37;;;;;;;8.25;4.35;;;31.40;55.30;;;;;;10741165;32;20053;-76
2022/06/02 13:33:16;;;;;;;12.18;4.87;;;31.40;54.80;;;;;;10738859;32;20033;-75
2022/06/02 13:39:35;;;;;;;16.27;5.25;;;31.40;54.90;;;;;;10744730;32;20047;-74
2022/06/02 13:45:57;;;;;;;7.65;4.00;;;31.40;54.70;;;;;;10765294;32;20424;-74
2022/06/02 13:52:24;;;;;;;5.47;3.85;;;31.20;54.70;;;;;;10862337;32;20074;-74
2022/06/02 13:58:43;;;;;;;12.98;4.87;;;31.30;54.40;;;;;;10870906;32;20301;-74
2022/06/02 14:05:19;;;;;;;6.28;4.03;;;31.30;53.80;;;;;;10864673;32;20051;-74
2022/06/02 14:11:56;;;;;;;11.55;4.32;;;31.40;53.90;;;;;;10877616;32;20035;-74
2022/06/02 14:18:44;;;;;;;7.68;3.95;;;31.30;53.70;;;;;;10890866;32;20058;-75
2022/06/02 14:25:06;;;;;;;9.52;4.90;;;31.30;53.80;;;;;;10659050;33;20040;-74
2022/06/02 14:31:41;;;;;;;8.27;4.90;;;31.10;54.10;;;;;;10669429;33;20064;-74
2022/06/02 14:37:54;;;;;;;9.65;3.20;;;31.00;53.70;;;;;;10668475;33;20029;-74
2022/06/02 14:44:14;;;;;;;3.83;2.55;;;31.00;54.10;;;;;;10671661;33;20026;-74
2022/06/02 14:50:30;;;;;;;4.20;2.53;;;31.00;53.90;;;;;;10671769;33;20053;-75
2022/06/02 14:56:54;;;;;;;7.40;4.73;;;31.10;53.40;;;;;;10758159;32;20127;-74
2022/06/02 15:03:39;;;;;;;6.55;3.37;;;31.10;53.10;;;;;;10892712;32;20057;-74
2022/06/02 15:10:17;;;;;;;7.32;3.65;;;31.10;53.30;;;;;;10740180;33;20435;-75
2022/06/02 15:16:28;;;;;;;;;;;31.20;53.20;;;;;;10706007;33;20464;-75
2022/06/02 15:22:55;;;;;;;8.70;5.43;;;31.10;53.30;;;;;;10720533;33;20034;-74
2022/06/02 15:29:04;;;;;;;9.13;5.28;;;31.10;52.70;;;;;;10738998;33;20457;-74
2022/06/02 15:35:21;;;;;;;6.37;3.72;;;31.20;52.50;;;;;;10736752;33;20028;-74
2022/06/02 15:42:03;;;;;;;9.13;6.00;;;31.30;52.20;;;;;;10807559;32;20023;-74
2022/06/02 15:48:50;;;;;;;6.87;3.87;;;31.30;51.90;;;;;;10891403;32;20023;-75
2022/06/02 15:55:12;;;;;;;9.63;5.07;;;31.40;52.10;;;;;;10891576;32;20067;-74
2022/06/02 16:01:17;;;;;;;7.37;3.25;;;31.40;52.00;;;;;;10891751;32;20090;-74
2022/06/02 16:07:41;;;;;;;7.35;3.83;;;31.30;51.90;;;;;;10879597;32;20344;-74
2022/06/02 16:13:52;;;;;;;3.47;1.80;;;31.30;51.70;;;;;;10893338;32;20019;-74
2022/06/02 16:20:31;;;;;;;5.57;2.90;;;31.40;52.00;;;;;;10883757;32;20035;-74
2022/06/02 16:26:55;;;;;;;4.75;1.95;;;31.50;52.00;;;;;;10853969;32;20090;-75
2022/06/02 16:33:19;;;;;;;8.55;3.12;;;31.50;52.00;;;;;;10740603;33;20054;-74
2022/06/02 16:39:33;;;;;;;5.68;2.80;;;31.60;51.80;;;;;;10773296;33;20110;-74
2022/06/02 16:46:04;;;;;;;4.75;2.42;;;31.30;51.70;;;;;;10773623;33;20360;-74
2022/06/02 16:52:15;;;;;;;10.05;3.20;;;31.30;51.40;;;;;;10772612;33;20040;-73
2022/06/02 16:58:50;;;;;;;6.75;2.30;;;31.10;51.20;;;;;;10776954;33;20067;-74
2022/06/02 17:05:13;;;;;;;3.42;2.55;;;31.00;51.50;;;;;;10776642;33;20055;-74
2022/06/02 17:11:42;;;;;;;6.12;2.10;;;31.00;51.40;;;;;;10892084;32;20042;-73
2022/06/02 17:18:12;;;;;;;6.25;2.62;;;31.10;51.40;;;;;;10868756;27;20419;-74
2022/06/02 17:24:47;;;;;;;10.90;3.15;;;31.10;51.50;;;;;;10866254;32;20031;-74
2022/06/02 17:31:18;;;;;;;5.10;2.33;;;31.00;51.60;;;;;;10875595;32;20388;-74
2022/06/02 17:37:47;;;;;;;2.25;1.70;;;31.00;51.80;;;;;;10858754;32;20031;-74
2022/06/02 17:44:25;;;;;;;3.97;2.10;;;31.10;51.80;;;;;;10865631;32;20035;-74
2022/06/02 17:51:15;;;;;;;9.67;3.07;;;31.40;51.40;;;;;;10868710;32;20468;-75
2022/06/02 17:57:53;;;;;;;6.10;2.15;;;32.00;50.40;;;;;;10747902;33;20025;-74
2022/06/02 18:04:08;;;;;;;5.43;2.72;;;32.20;50.30;;;;;;10714211;33;20256;-74
2022/06/02 18:10:47;;;;;;;5.57;2.72;;;31.60;51.60;;;;;;10715682;33;20271;-74
2022/06/02 18:17:07;;;;;;;4.93;2.03;;;30.90;52.80;;;;;;10715450;33;20029;-74
2022/06/02 18:23:50;;;;;;;3.97;2.50;;;30.40;53.80;;;;;;10752270;32;20458;-76
2022/06/02 18:30:30;;;;;;;3.37;1.50;;;30.00;54.40;;;;;;10736882;33;20024;-76
2022/06/02 18:36:43;;;;;;;11.48;3.90;;;29.80;55.10;;;;;;10790457;32;20423;-75
2022/06/02 18:43:25;;;;;;;7.68;2.75;;;29.60;55.40;;;;;;10764719;32;20029;-76
2022/06/02 18:49:30;;;;;;;6.72;2.70;;;29.30;55.70;;;;;;10751776;32;20055;-75
2022/06/02 18:55:44;;;;;;;4.35;2.10;;;29.20;56.00;;;;;;10769135;33;20016;-75
2022/06/02 19:02:09;;;;;;;4.40;2.92;;;29.10;56.10;;;;;;10786898;33;20033;-75
2022/06/02 19:15:31;;;;;;;4.55;2.47;;;28.90;56.40;;;;;;10832299;32;20023;-76
2022/06/02 19:22:14;;;;;;;7.00;2.58;;;28.80;56.60;;;;;;10842934;32;20031;-76
2022/06/02 19:28:19;;;;;;;3.95;2.12;;;28.70;57.00;;;;;;10828602;32;20019;-75
2022/06/02 19:34:42;;;;;;;3.08;2.00;;;28.60;57.30;;;;;;10835867;32;20382;-76
2022/06/02 19:40:55;;;;;;;4.47;2.30;;;28.50;57.60;;;;;;10833992;32;20050;-76
2022/06/02 19:47:22;;;;;;;6.82;3.35;;;28.40;57.90;;;;;;10865582;32;20031;-75
2022/06/02 19:53:31;;;;;;;6.95;2.72;;;28.30;58.30;;;;;;10836000;32;20054;-76
2022/06/02 19:59:34;;;;;;;6.32;2.33;;;28.30;58.70;;;;;;10826813;32;20028;-76
2022/06/02 20:05:49;;;;;;;8.68;2.28;;;28.30;58.90;;;;;;10831875;32;20050;-76
2022/06/02 20:11:59;;;;;;;3.78;2.25;;;28.20;59.00;;;;;;10830454;32;20034;-76
2022/06/02 20:18:25;;;;;;;4.12;2.22;;;28.10;59.40;;;;;;10828785;32;20200;-75
2022/06/02 20:24:41;;;;;;;4.37;2.72;;;28.00;59.60;;;;;;10831314;32;20329;-75
2022/06/02 20:30:52;;;;;;;4.37;2.35;;;27.80;59.80;;;;;;10827625;32;20032;-76
2022/06/02 20:37:31;;;;;;;3.42;2.05;;;27.80;60.40;;;;;;10831418;32;20039;-76
2022/06/02 20:43:56;;;;;;;5.05;3.33;;;27.80;60.90;;;;;;10830075;32;20024;-76
2022/06/02 20:50:01;;;;;;;8.02;3.17;;;27.80;61.30;;;;;;10865036;32;20039;-75
2022/06/02 20:56:11;;;;;;;6.15;3.10;;;27.70;62.10;;;;;;10862777;32;20046;-75
2022/06/02 21:02:27;;;;;;;5.53;3.08;;;27.60;62.90;;;;;;10866709;32;20426;-75
2022/06/02 21:08:44;;;;;;;9.90;2.92;;;27.60;63.20;;;;;;10866626;32;20328;-76
2022/06/02 21:14:52;;;;;;;6.30;2.92;;;27.30;64.30;;;;;;10854279;32;20075;-76
2022/06/02 21:21:28;;;;;;;8.07;3.05;;;27.30;64.30;;;;;;10830035;33;20055;-76
2022/06/02 21:27:37;;;;;;;3.55;2.45;;;27.30;64.30;;;;;;10838732;32;20439;-76
2022/06/02 21:33:39;;;;;;;4.17;2.70;;;27.30;64.30;;;;;;10825408;32;20063;-75
2022/06/02 21:39:46;;;;;;;5.70;3.92;;;27.10;65.10;;;;;;10825819;33;20024;-76
2022/06/02 21:46:22;;;;;;;3.45;2.65;;;27.10;65.50;;;;;;10829117;33;20028;-76
2022/06/02 21:52:39;;;;;;;5.30;2.42;;;27.10;65.30;;;;;;10828981;33;20032;-75
2022/06/02 21:58:48;;;;;;;;;;;27.10;65.10;;;;;;10832268;32;20059;-75
2022/06/02 22:04:59;;;;;;;4.62;2.90;;;27.10;65.20;;;;;;10834688;32;20296;-75
2022/06/02 22:11:30;;;;;;;6.10;3.80;;;27.00;65.20;;;;;;10835340;32;20042;-75
2022/06/02 22:17:40;;;;;;;7.75;4.70;;;27.10;65.10;;;;;;10831735;32;20475;-75
2022/06/02 22:23:57;;;;;;;6.10;3.25;;;26.90;65.20;;;;;;10834877;32;20024;-75
2022/06/02 22:30:19;;;;;;;6.67;2.77;;;26.80;65.40;;;;;;10834889;32;20050;-75
2022/06/02 22:36:37;;;;;;;5.18;3.33;;;26.80;65.80;;;;;;10834666;32;20074;-75
2022/06/02 22:43:16;;;;;;;5.27;3.80;;;26.80;65.90;;;;;;10834200;32;20062;-75
2022/06/02 22:49:18;;;;;;;3.53;2.25;;;26.80;66.00;;;;;;10834098;32;20431;-75
2022/06/02 22:55:45;;;;;;;6.43;3.25;;;26.70;66.10;;;;;;10833899;32;20415;-76
2022/06/02 23:02:06;;;;;;;9.30;3.97;;;26.70;66.30;;;;;;10833519;32;20393;-75
2022/06/02 23:08:39;;;;;;;6.95;4.15;;;26.50;66.40;;;;;;10829053;32;20059;-76
2022/06/02 23:15:22;;;;;;;6.75;3.25;;;26.50;66.50;;;;;;10832329;32;20054;-76
2022/06/02 23:21:58;;;;;;;6.37;3.28;;;26.40;66.60;;;;;;10755265;33;20055;-75
2022/06/02 23:28:24;;;;;;;7.60;3.58;;;26.40;66.80;;;;;;10755015;32;20016;-76
2022/06/02 23:34:57;;;;;;;6.90;4.03;;;26.30;66.90;;;;;;10754783;32;20029;-75
2022/06/02 23:48:21;;;;;;;8.25;3.97;;;26.30;67.40;;;;;;10757623;32;20058;-76
2022/06/02 23:54:26;;;;;;;6.90;3.40;;;26.30;68.40;;;;;;10831755;32;20050;-76
